Time;durP1;ratioP1;P1;durP2;ratioP2;P2;SDS_P1;SDS_P2;PMS_P1;PMS_P2;Temp;Humidity;BMP_temperature;BMP_pressure;BME280_temperature;BME280_humidity;BME280_pressure;Samples;Min_cycle;Max_cycle;Signal;HPM_P1;HPM_P2
2023/04/17 00:01:41;;;;;;;;;;;;;;;26.47;40.05;94460.28;5026378;28;9053;-62
2023/04/17 00:04:13;;;;;;;;;;;;;;;26.44;39.77;94450.25;5033860;28;9109;-61
2023/04/17 00:06:43;;;;;;;;;;;;;;;26.42;40.51;94444.50;5032985;28;7201;-62
2023/04/17 00:09:14;;;;;;;;;;;;;;;26.39;40.19;94440.00;5025372;28;9091;-62
2023/04/17 00:11:42;;;;;;;;;;;;;;;26.38;39.97;94449.56;5024758;28;7057;-61
2023/04/17 00:14:10;;;;;;;;;;;;;;;26.38;40.33;94439.25;5014406;28;9056;-62
2023/04/17 00:16:36;;;;;;;;;;;;;;;26.37;39.79;94437.78;5040857;28;7040;-62
2023/04/17 00:19:02;;;;;;;;;;;;;;;26.38;40.52;94438.53;5026405;28;7251;-62
2023/04/17 00:21:30;;;;;;;;;;;;;;;26.36;40.56;94446.56;5043316;28;8951;-62
2023/04/17 00:23:57;;;;;;;;;;;;;;;26.37;40.59;94434.25;5043678;28;9465;-61
2023/04/17 00:26:24;;;;;;;;;;;;;;;26.32;40.34;94432.31;5017281;28;9514;-62
2023/04/17 00:28:53;;;;;;;;;;;;;;;26.36;40.11;94430.75;5025419;28;9119;-62
2023/04/17 00:31:23;;;;;;;;;;;;;;;26.38;40.30;94436.50;5027166;28;7174;-61
2023/04/17 00:33:49;;;;;;;;;;;;;;;26.34;40.71;94429.78;5032287;28;6966;-62
2023/04/17 00:36:15;;;;;;;;;;;;;;;26.34;40.37;94432.56;5032880;28;9086;-61
2023/04/17 00:38:42;;;;;;;;;;;;;;;26.29;40.23;94428.59;5028634;28;7115;-61
2023/04/17 00:41:22;;;;;;;;;;;;;;;26.21;40.25;94424.16;5035056;28;7371;-61
2023/04/17 00:43:49;;;;;;;;;;;;;;;26.21;41.02;94424.16;5029295;28;9453;-61
2023/04/17 00:46:42;;;;;;;;;;;;;;;26.21;40.33;94418.63;5018936;28;8789;-61
2023/04/17 00:49:18;;;;;;;;;;;;;;;26.19;41.06;94419.13;4975074;28;7734;-61
2023/04/17 00:51:48;;;;;;;;;;;;;;;26.18;40.48;94420.41;4975764;28;9002;-61
2023/04/17 00:54:34;;;;;;;;;;;;;;;26.20;40.90;94417.13;4974721;28;7344;-61
2023/04/17 00:57:02;;;;;;;;;;;;;;;26.20;40.24;94411.59;4958858;28;7246;-61
2023/04/17 00:59:49;;;;;;;;;;;;;;;26.17;40.96;94411.38;4958525;28;9173;-61
2023/04/17 01:02:17;;;;;;;;;;;;;;;26.16;40.36;94406.38;4958719;28;8929;-61
2023/04/17 01:05:30;;;;;;;;;;;;;;;26.14;41.12;94412.41;4974689;28;7044;-61
2023/04/17 01:08:12;;;;;;;;;;;;;;;26.19;41.03;94410.13;4913737;29;7289;-61
2023/04/17 01:10:38;;;;;;;;;;;;;;;26.16;40.59;94401.59;4911356;29;7135;-61
2023/04/17 01:13:12;;;;;;;;;;;;;;;26.19;40.89;94401.84;4907169;29;8699;-61
2023/04/17 01:16:07;;;;;;;;;;;;;;;26.15;40.43;94400.13;4901178;29;7450;-61
2023/04/17 01:18:55;;;;;;;;;;;;;;;26.09;40.55;94401.44;4879331;29;7040;-61
2023/04/17 01:21:39;;;;;;;;;;;;;;;26.10;40.68;94400.91;4880252;29;9587;-61
2023/04/17 01:24:17;;;;;;;;;;;;;;;26.12;41.30;94397.66;4861515;29;7342;-61
2023/04/17 01:26:59;;;;;;;;;;;;;;;26.10;40.64;94400.91;4904595;29;7029;-61
2023/04/17 01:29:27;;;;;;;;;;;;;;;26.09;40.83;94402.19;4925237;29;9147;-61
2023/04/17 01:31:53;;;;;;;;;;;;;;;26.09;40.84;94393.91;4916103;29;9038;-61
2023/04/17 01:34:30;;;;;;;;;;;;;;;26.09;41.03;94407.69;4898215;29;9802;-62
2023/04/17 01:37:06;;;;;;;;;;;;;;;26.05;40.99;94395.41;4916949;29;9399;-61
2023/04/17 01:39:34;;;;;;;;;;;;;;;26.07;40.64;94403.91;4909882;29;7035;-61
2023/04/17 01:42:02;;;;;;;;;;;;;;;26.08;41.20;94394.38;4890279;29;9494;-61
2023/04/17 01:45:04;;;;;;;;;;;;;;;26.09;40.88;94396.66;4934740;28;7244;-62
2023/04/17 01:47:43;;;;;;;;;;;;;;;26.08;40.82;94388.88;4953740;28;7033;-61
2023/04/17 01:50:24;;;;;;;;;;;;;;;26.10;40.53;94394.63;4954308;28;7092;-62
2023/04/17 01:53:11;;;;;;;;;;;;;;;26.07;41.50;94392.91;4973773;28;8223;-62
2023/04/17 01:55:57;;;;;;;;;;;;;;;26.06;40.94;94386.63;5006380;28;9381;-61
2023/04/17 01:58:25;;;;;;;;;;;;;;;26.07;41.21;94387.38;5041659;28;7881;-61
2023/04/17 02:01:02;;;;;;;;;;;;;;;26.03;41.36;94384.88;5027073;28;8907;-62
2023/04/17 02:03:32;;;;;;;;;;;;;;;26.05;41.51;94389.91;5017631;28;6860;-61
2023/04/17 02:05:59;;;;;;;;;;;;;;;26.05;40.62;94378.88;5018688;28;8990;-61
2023/04/17 02:08:38;;;;;;;;;;;;;;;26.06;41.59;94377.59;5017652;28;7082;-62
2023/04/17 02:11:15;;;;;;;;;;;;;;;26.05;40.82;94378.88;5045692;28;9050;-62
2023/04/17 02:13:43;;;;;;;;;;;;;;;26.06;40.54;94378.38;5022731;28;7013;-61
2023/04/17 02:16:22;;;;;;;;;;;;;;;26.02;40.54;94375.13;5023600;28;7282;-61
2023/04/17 02:19:02;;;;;;;;;;;;;;;26.03;40.71;94373.88;5048443;28;7638;-61
2023/04/17 02:21:32;;;;;;;;;;;;;;;26.10;41.27;94375.34;5023615;28;7032;-62
2023/04/17 02:24:26;;;;;;;;;;;;;;;26.12;41.17;94373.56;5016668;28;8996;-61
2023/04/17 02:26:52;;;;;;;;;;;;;;;26.11;40.60;94374.84;5034165;28;7387;-62
2023/04/17 02:29:24;;;;;;;;;;;;;;;26.11;41.18;94371.34;5033886;28;9138;-61
2023/04/17 02:32:00;;;;;;;;;;;;;;;26.10;41.02;94370.59;5019037;28;7106;-62
2023/04/17 02:34:34;;;;;;;;;;;;;;;26.07;41.11;94377.13;5023767;28;9096;-61
2023/04/17 02:37:20;;;;;;;;;;;;;;;26.07;40.95;94376.34;5017082;28;7328;-62
2023/04/17 02:40:00;;;;;;;;;;;;;;;26.07;40.97;94376.34;5026544;28;7051;-61
2023/04/17 02:42:26;;;;;;;;;;;;;;;26.05;40.86;94378.88;5016683;28;7199;-62
2023/04/17 02:45:00;;;;;;;;;;;;;;;26.05;41.19;94374.13;5042353;28;7081;-61
2023/04/17 02:48:00;;;;;;;;;;;;;;;26.04;40.87;94377.38;5034083;28;9026;-62
2023/04/17 02:50:27;;;;;;;;;;;;;;;26.03;41.37;94376.63;5017373;28;7452;-61
2023/04/17 02:53:04;;;;;;;;;;;;;;;26.01;40.92;94376.38;5015969;28;9220;-61
2023/04/17 02:55:50;;;;;;;;;;;;;;;25.98;41.24;94371.91;5006506;28;8106;-61
2023/04/17 02:58:16;;;;;;;;;;;;;;;26.01;40.83;94384.66;5031072;28;7238;-62
2023/04/17 03:00:48;;;;;;;;;;;;;;;25.98;41.08;94371.16;5025838;28;8932;-61
2023/04/17 03:03:14;;;;;;;;;;;;;;;25.99;41.07;94376.16;5016405;28;9007;-62
2023/04/17 03:05:45;;;;;;;;;;;;;;;25.98;41.51;94369.16;5016171;28;9245;-61
2023/04/17 03:08:28;;;;;;;;;;;;;;;26.00;41.09;94363.88;5025099;28;9026;-61
2023/04/17 03:11:29;;;;;;;;;;;;;;;26.00;41.71;94371.41;5033306;28;9178;-61
2023/04/17 03:13:56;;;;;;;;;;;;;;;25.98;41.78;94366.41;5025330;28;8260;-61
2023/04/17 03:17:03;;;;;;;;;;;;;;;25.99;41.88;94372.69;5039467;28;7107;-61
2023/04/17 03:19:49;;;;;;;;;;;;;;;25.98;40.99;94369.16;4965768;28;7515;-61
2023/04/17 03:22:16;;;;;;;;;;;;;;;25.96;41.15;94371.69;4992358;28;9264;-61
2023/04/17 03:25:01;;;;;;;;;;;;;;;25.96;41.63;94370.94;4991027;28;8997;-61
2023/04/17 03:27:38;;;;;;;;;;;;;;;25.99;41.79;94373.41;4973843;28;8670;-61
2023/04/17 03:30:44;;;;;;;;;;;;;;;25.98;41.80;94379.44;4975857;28;9477;-61
2023/04/17 03:33:19;;;;;;;;;;;;;;;25.97;41.40;94367.66;4945591;28;7954;-62
2023/04/17 03:35:47;;;;;;;;;;;;;;;25.99;41.41;94376.16;4933979;29;7215;-62
2023/04/17 03:38:25;;;;;;;;;;;;;;;25.97;40.87;94378.69;4919036;29;8763;-61
2023/04/17 03:40:51;;;;;;;;;;;;;;;25.98;41.23;94379.44;4932903;28;7336;-61
2023/04/17 03:43:17;;;;;;;;;;;;;;;25.98;40.83;94379.44;4928612;29;8885;-61
2023/04/17 03:46:00;;;;;;;;;;;;;;;25.97;41.52;94372.41;4942268;29;7256;-61
2023/04/17 03:48:27;;;;;;;;;;;;;;;25.97;40.88;94381.44;4926518;29;8152;-62
2023/04/17 03:51:03;;;;;;;;;;;;;;;25.96;41.09;94382.72;4942557;29;7067;-62
2023/04/17 03:53:31;;;;;;;;;;;;;;;25.94;41.42;94374.22;4934938;28;7286;-61
2023/04/17 03:56:06;;;;;;;;;;;;;;;25.95;41.01;94374.94;4958420;28;9424;-61
2023/04/17 03:58:51;;;;;;;;;;;;;;;25.94;41.43;94379.72;4977676;28;9162;-61
2023/04/17 04:01:37;;;;;;;;;;;;;;;25.90;41.83;94376.47;4960337;28;9028;-61
2023/04/17 04:04:03;;;;;;;;;;;;;;;25.94;41.57;94384.47;4969943;28;9111;-61
2023/04/17 04:06:29;;;;;;;;;;;;;;;25.93;41.87;94375.47;4993255;28;8924;-61
2023/04/17 04:09:12;;;;;;;;;;;;;;;25.95;41.67;94372.94;5013897;28;7434;-61
2023/04/17 04:11:46;;;;;;;;;;;;;;;25.90;41.20;94373.00;5029403;28;9276;-61
2023/04/17 04:14:25;;;;;;;;;;;;;;;25.93;41.03;94371.94;5020499;28;9144;-62
2023/04/17 04:17:02;;;;;;;;;;;;;;;25.94;41.15;94376.22;5033562;28;8570;-61
2023/04/17 04:19:34;;;;;;;;;;;;;;;25.92;41.15;94376.75;5021042;28;7027;-62
2023/04/17 04:22:20;;;;;;;;;;;;;;;25.95;40.96;94389.47;5021374;28;8723;-62
2023/04/17 04:24:47;;;;;;;;;;;;;;;25.93;41.19;94383.72;5030806;28;7073;-61
2023/04/17 04:27:16;;;;;;;;;;;;;;;25.95;41.95;94386.72;5004609;28;9336;-62
2023/04/17 04:29:47;;;;;;;;;;;;;;;25.94;41.86;94371.47;5023007;28;8709;-61
2023/04/17 04:32:14;;;;;;;;;;;;;;;25.95;41.30;94389.47;5014982;28;7345;-61
2023/04/17 04:34:43;;;;;;;;;;;;;;;25.94;41.75;94385.25;5015685;28;9521;-62
2023/04/17 04:37:14;;;;;;;;;;;;;;;25.96;40.98;94390.22;5012900;28;7154;-61
2023/04/17 04:39:52;;;;;;;;;;;;;;;25.95;41.80;94386.72;5018109;28;7243;-61
2023/04/17 04:42:28;;;;;;;;;;;;;;;25.93;42.03;94386.47;5019889;28;7174;-61
2023/04/17 04:44:57;;;;;;;;;;;;;;;25.95;41.82;94380.44;5034779;28;8963;-62
2023/04/17 04:47:26;;;;;;;;;;;;;;;25.93;41.54;94380.97;5028962;28;9320;-61
2023/04/17 04:49:55;;;;;;;;;;;;;;;25.96;42.41;94381.97;5031457;28;9533;-61
2023/04/17 04:52:21;;;;;;;;;;;;;;;25.99;42.86;94383.69;5010810;28;9096;-62
2023/04/17 04:54:52;;;;;;;;;;;;;;;26.01;42.25;94390.16;5007526;28;7272;-62
2023/04/17 04:57:18;;;;;;;;;;;;;;;26.01;42.08;94389.44;5021110;28;8675;-62
2023/04/17 05:00:06;;;;;;;;;;;;;;;25.99;42.83;94394.72;5012099;28;7216;-61
2023/04/17 05:02:31;;;;;;;;;;;;;;;25.98;42.41;94391.22;5032236;28;7263;-62
2023/04/17 05:05:08;;;;;;;;;;;;;;;25.98;42.76;94396.72;5018731;28;7288;-61
2023/04/17 05:07:48;;;;;;;;;;;;;;;25.98;42.34;94395.97;5028489;28;7433;-62
2023/04/17 05:10:48;;;;;;;;;;;;;;;26.01;41.68;94401.19;5031941;28;7446;-62
2023/04/17 05:13:23;;;;;;;;;;;;;;;26.03;42.45;94395.91;4966335;28;9060;-62
2023/04/17 05:15:52;;;;;;;;;;;;;;;26.05;42.31;94398.94;4973813;28;7043;-62
2023/04/17 05:18:29;;;;;;;;;;;;;;;26.06;42.29;94397.66;4970417;28;7049;-62
2023/04/17 05:20:58;;;;;;;;;;;;;;;26.06;42.34;94405.91;4975117;28;7071;-62
2023/04/17 05:23:37;;;;;;;;;;;;;;;26.11;41.74;94402.41;4993137;28;7353;-62
2023/04/17 05:26:16;;;;;;;;;;;;;;;26.17;41.37;94405.88;4966255;28;7245;-62
2023/04/17 05:28:47;;;;;;;;;;;;;;;26.18;41.19;94403.88;4966731;28;8387;-62
2023/04/17 05:31:22;;;;;;;;;;;;;;;26.19;41.39;94407.38;4985896;28;7035;-62
2023/04/17 05:33:50;;;;;;;;;;;;;;;26.24;41.37;94406.56;4984674;28;9074;-61
2023/04/17 05:36:16;;;;;;;;;;;;;;;26.25;41.66;94413.56;4986854;28;8998;-61
2023/04/17 05:38:57;;;;;;;;;;;;;;;26.25;40.96;94405.31;4963875;28;7097;-62
2023/04/17 05:41:33;;;;;;;;;;;;;;;26.25;41.23;94406.06;4976170;28;7519;-62
2023/04/17 05:43:59;;;;;;;;;;;;;;;26.27;41.16;94411.06;4975888;28;7924;-62
2023/04/17 05:46:28;;;;;;;;;;;;;;;26.29;41.23;94403.00;4962800;28;7409;-61
2023/04/17 05:48:55;;;;;;;;;;;;;;;26.30;41.36;94412.75;4981009;28;7274;-61
2023/04/17 05:51:55;;;;;;;;;;;;;;;26.27;41.37;94417.31;5007994;28;8985;-61
2023/04/17 05:54:21;;;;;;;;;;;;;;;26.27;41.17;94411.81;4930794;28;9218;-62
2023/04/17 05:56:59;;;;;;;;;;;;;;;26.28;41.25;94409.78;4924514;29;8731;-62
2023/04/17 06:00:09;;;;;;;;;;;;;;;26.31;40.57;94414.28;4923577;28;7247;-62
2023/04/17 06:02:39;;;;;;;;;;;;;;;26.28;40.89;94415.28;4924225;28;7055;-62
2023/04/17 06:05:06;;;;;;;;;;;;;;;26.27;40.81;94419.31;4939438;28;8929;-62
2023/04/17 06:07:33;;;;;;;;;;;;;;;26.24;41.56;94420.34;4925200;28;9722;-61
2023/04/17 06:10:00;;;;;;;;;;;;;;;26.24;41.35;94420.34;4935935;28;7501;-61
2023/04/17 06:12:28;;;;;;;;;;;;;;;26.25;41.29;94421.84;4942596;28;9738;-62
2023/04/17 06:14:55;;;;;;;;;;;;;;;26.20;41.38;94420.63;4939606;28;7020;-61
2023/04/17 06:17:23;;;;;;;;;;;;;;;26.15;40.95;94416.66;4932730;28;7151;-62
2023/04/17 06:19:51;;;;;;;;;;;;;;;26.15;40.89;94424.94;4928606;28;7228;-62
2023/04/17 06:22:28;;;;;;;;;;;;;;;26.12;41.67;94417.69;4933279;28;8876;-62
2023/04/17 06:25:13;;;;;;;;;;;;;;;26.11;41.08;94423.72;4931274;28;9364;-62
2023/04/17 06:27:40;;;;;;;;;;;;;;;26.09;41.73;94427.00;4925744;29;8740;-61
2023/04/17 06:30:21;;;;;;;;;;;;;;;26.09;41.26;94424.22;4985627;28;7279;-62
2023/04/17 06:33:11;;;;;;;;;;;;;;;26.10;41.75;94425.72;5030359;28;9137;-62
2023/04/17 06:35:48;;;;;;;;;;;;;;;26.09;41.32;94427.00;5024182;28;7263;-62
2023/04/17 06:38:20;;;;;;;;;;;;;;;26.11;42.13;94429.22;5012137;28;7108;-61
2023/04/17 06:40:49;;;;;;;;;;;;;;;26.12;41.57;94427.97;5017148;28;7374;-61
2023/04/17 06:43:16;;;;;;;;;;;;;;;26.12;42.02;94428.69;5015784;28;9344;-61
2023/04/17 06:45:56;;;;;;;;;;;;;;;26.10;41.96;94420.19;5015437;28;8777;-62
2023/04/17 06:48:21;;;;;;;;;;;;;;;26.07;41.43;94429.47;5015407;28;7132;-62
2023/04/17 06:51:01;;;;;;;;;;;;;;;26.08;41.68;94427.44;5029176;28;9159;-62
2023/04/17 06:53:40;;;;;;;;;;;;;;;26.08;41.20;94431.00;5029246;28;7333;-62
2023/04/17 06:56:15;;;;;;;;;;;;;;;26.07;41.93;94432.25;5024426;28;7299;-62
2023/04/17 06:58:44;;;;;;;;;;;;;;;26.09;42.00;94440.78;5028587;28;9317;-61
2023/04/17 07:01:12;;;;;;;;;;;;;;;26.09;41.97;94437.25;5030063;28;9196;-62
2023/04/17 07:03:41;;;;;;;;;;;;;;;26.11;41.50;94441.00;5033535;28;7178;-61
2023/04/17 07:06:09;;;;;;;;;;;;;;;26.09;42.10;94440.78;5015279;28;7349;-62
2023/04/17 07:08:35;;;;;;;;;;;;;;;26.08;41.98;94435.72;5015133;28;7186;-62
2023/04/17 07:11:05;;;;;;;;;;;;;;;26.10;41.67;94438.75;5014973;28;7278;-62
2023/04/17 07:13:41;;;;;;;;;;;;;;;26.11;41.67;94443.75;5012604;28;7054;-62
2023/04/17 07:16:34;;;;;;;;;;;;;;;26.16;41.47;94442.22;5030336;28;7061;-64
2023/04/17 07:19:07;;;;;;;;;;;;;;;26.13;41.25;94446.75;5021574;28;7716;-62
2023/04/17 07:22:04;;;;;;;;;;;;;;;26.14;41.13;94439.25;5020814;28;7241;-62
2023/04/17 07:24:33;;;;;;;;;;;;;;;26.13;41.57;94441.22;5023911;28;7061;-62
2023/04/17 07:27:02;;;;;;;;;;;;;;;26.12;41.64;94434.22;5031481;28;8670;-62
2023/04/17 07:29:29;;;;;;;;;;;;;;;26.15;41.94;94440.72;5032466;28;7646;-62
2023/04/17 07:32:02;;;;;;;;;;;;;;;26.12;41.58;94442.47;5018796;28;7101;-62
2023/04/17 07:34:58;;;;;;;;;;;;;;;26.11;41.50;94443.75;5003065;28;7263;-62
2023/04/17 07:37:24;;;;;;;;;;;;;;;26.12;41.50;94434.22;4974417;28;9146;-62
2023/04/17 07:39:58;;;;;;;;;;;;;;;26.15;41.95;94435.19;4988628;28;7235;-63
2023/04/17 07:42:45;;;;;;;;;;;;;;;26.13;41.38;94441.22;4972872;28;7628;-62
2023/04/17 07:45:20;;;;;;;;;;;;;;;26.19;41.95;94446.69;4985851;28;8863;-62
2023/04/17 07:47:46;;;;;;;;;;;;;;;26.18;41.75;94434.19;4975751;28;7111;-62
2023/04/17 07:50:20;;;;;;;;;;;;;;;26.19;41.44;94434.94;4975370;28;7310;-62
2023/04/17 07:52:51;;;;;;;;;;;;;;;26.26;41.84;94434.34;4982541;28;7054;-62
2023/04/17 07:55:16;;;;;;;;;;;;;;;26.26;41.24;94437.88;4991196;28;9050;-62
2023/04/17 07:57:45;;;;;;;;;;;;;;;26.24;41.24;94445.91;4978912;28;7431;-62
2023/04/17 08:00:46;;;;;;;;;;;;;;;26.25;41.08;94446.66;4977425;28;7037;-62
2023/04/17 08:03:27;;;;;;;;;;;;;;;26.34;41.41;94444.31;4914338;29;9034;-62
2023/04/17 08:05:55;;;;;;;;;;;;;;;26.35;41.02;94443.06;4892628;29;7270;-63
2023/04/17 08:08:22;;;;;;;;;;;;;;;26.29;41.11;94436.84;4912311;29;8971;-62
2023/04/17 08:10:57;;;;;;;;;;;;;;;26.31;40.93;94448.13;4898681;29;7015;-62
2023/04/17 08:13:23;;;;;;;;;;;;;;;26.25;41.86;94438.41;4909401;29;7275;-62
2023/04/17 08:15:53;;;;;;;;;;;;;;;26.22;41.86;94451.19;4935690;28;7039;-62
2023/04/17 08:18:19;;;;;;;;;;;;;;;26.28;41.93;94449.13;4938515;28;7200;-62
2023/04/17 08:20:45;;;;;;;;;;;;;;;26.26;41.70;94440.63;4937407;28;7251;-62
2023/04/17 08:23:11;;;;;;;;;;;;;;;26.31;40.86;94452.88;4947475;28;7084;-62
2023/04/17 08:25:39;;;;;;;;;;;;;;;26.30;40.98;94454.13;4953299;28;6849;-62
2023/04/17 08:28:08;;;;;;;;;;;;;;;26.28;41.14;94451.13;4936412;28;7074;-62
2023/04/17 08:30:36;;;;;;;;;;;;;;;26.29;41.23;94452.66;4938071;28;9085;-62
2023/04/17 08:33:05;;;;;;;;;;;;;;;26.29;41.31;94447.13;4938127;28;9116;-62
2023/04/17 08:35:33;;;;;;;;;;;;;;;26.29;41.68;94447.13;4956087;28;7057;-62
2023/04/17 08:38:13;;;;;;;;;;;;;;;26.30;41.13;94451.38;4952920;28;9092;-62
2023/04/17 08:40:41;;;;;;;;;;;;;;;26.28;41.67;94448.38;5019058;28;9326;-63
2023/04/17 08:43:21;;;;;;;;;;;;;;;26.30;40.87;94451.38;5039151;28;8880;-62
2023/04/17 08:46:01;;;;;;;;;;;;;;;26.27;40.89;94450.41;5042662;28;7955;-62
2023/04/17 08:48:39;;;;;;;;;;;;;;;26.30;40.96;94457.63;5033508;28;9025;-62
2023/04/17 08:51:34;;;;;;;;;;;;;;;26.29;40.83;94458.16;5029503;28;8993;-62
2023/04/17 08:54:01;;;;;;;;;;;;;;;26.26;41.63;94454.41;4994593;28;10511;-62
2023/04/17 08:56:37;;;;;;;;;;;;;;;26.29;40.98;94453.41;4994773;28;9076;-62
2023/04/17 08:59:16;;;;;;;;;;;;;;;26.29;41.14;94456.16;4970614;28;9095;-62
2023/04/17 09:02:03;;;;;;;;;;;;;;;26.31;41.63;94444.59;4976399;28;7030;-63
2023/04/17 09:04:41;;;;;;;;;;;;;;;26.29;41.56;94442.38;4978407;28;7364;-62
2023/04/17 09:07:30;;;;;;;;;;;;;;;26.30;40.91;94443.84;4975261;28;7569;-62
2023/04/17 09:09:56;;;;;;;;;;;;;;;26.26;41.31;94448.16;4991175;28;7129;-62
2023/04/17 09:12:24;;;;;;;;;;;;;;;26.21;41.16;94429.66;4974890;28;7251;-62
2023/04/17 09:14:51;;;;;;;;;;;;;;;26.25;41.50;94432.88;4981766;28;7610;-62
2023/04/17 09:17:19;;;;;;;;;;;;;;;26.24;41.09;94439.66;4975483;28;9078;-62
2023/04/17 09:20:13;;;;;;;;;;;;;;;26.24;41.82;94437.63;4983357;28;9661;-62
2023/04/17 09:22:40;;;;;;;;;;;;;;;26.25;41.52;94436.38;4986269;28;8814;-62
2023/04/17 09:25:31;;;;;;;;;;;;;;;26.25;41.26;94435.63;4986297;28;9204;-62
2023/04/17 09:28:38;;;;;;;;;;;;;;;26.23;41.56;94440.91;4974927;28;9759;-62
2023/04/17 09:31:25;;;;;;;;;;;;;;;26.23;41.72;94447.16;4911461;28;7076;-62
2023/04/17 09:34:06;;;;;;;;;;;;;;;26.23;41.89;94441.66;4927013;28;9119;-62
2023/04/17 09:36:35;;;;;;;;;;;;;;;26.26;41.31;94442.63;4930712;28;9771;-61
2023/04/17 09:39:15;;;;;;;;;;;;;;;26.33;41.61;94436.56;4947037;28;8921;-62
2023/04/17 09:42:12;;;;;;;;;;;;;;;26.38;41.58;94439.25;4933139;29;7245;-63
2023/04/17 09:44:47;;;;;;;;;;;;;;;26.44;41.35;94436.47;4887973;29;7286;-63
2023/04/17 09:47:16;;;;;;;;;;;;;;;26.45;41.19;94433.19;4897019;29;7248;-63
2023/04/17 09:49:48;;;;;;;;;;;;;;;26.46;40.75;94436.69;4883312;29;9189;-63
2023/04/17 09:52:15;;;;;;;;;;;;;;;26.50;41.09;94432.41;4875400;29;7534;-62
2023/04/17 09:54:52;;;;;;;;;;;;;;;26.48;41.25;94428.66;4879895;29;7646;-62
2023/04/17 09:57:43;;;;;;;;;;;;;;;26.50;41.53;94434.41;4878802;29;9468;-62
2023/04/17 10:00:22;;;;;;;;;;;;;;;26.48;41.03;94432.16;4878947;29;9006;-62
2023/04/17 10:03:00;;;;;;;;;;;;;;;26.48;40.95;94431.41;4878871;29;6930;-62
2023/04/17 10:05:30;;;;;;;;;;;;;;;26.47;40.91;94427.16;4931114;28;7490;-62
2023/04/17 10:07:57;;;;;;;;;;;;;;;26.46;40.95;94429.19;4939005;28;9110;-62
2023/04/17 10:10:35;;;;;;;;;;;;;;;26.43;41.28;94435.72;4954689;28;8993;-62
2023/04/17 10:13:10;;;;;;;;;;;;;;;26.47;40.54;94429.94;4938099;28;7045;-61
2023/04/17 10:15:54;;;;;;;;;;;;;;;26.46;40.12;94431.94;4954165;28;7260;-61
2023/04/17 10:19:09;;;;;;;;;;;;;;;26.44;41.10;94423.44;4938808;28;8602;-61
2023/04/17 10:21:38;;;;;;;;;;;;;;;26.45;41.30;94424.16;4922355;28;7335;-61
2023/04/17 10:24:26;;;;;;;;;;;;;;;26.46;40.58;94428.41;4938714;28;9174;-61
2023/04/17 10:27:25;;;;;;;;;;;;;;;26.45;41.12;94426.91;4938379;28;9735;-61
2023/04/17 10:30:11;;;;;;;;;;;;;;;26.43;41.02;94415.66;4938139;28;7052;-61
2023/04/17 10:32:44;;;;;;;;;;;;;;;26.48;41.03;94417.63;4945514;28;8695;-62
2023/04/17 10:35:33;;;;;;;;;;;;;;;26.53;40.97;94408.56;4936054;28;7277;-62
2023/04/17 10:38:10;;;;;;;;;;;;;;;26.56;40.87;94402.00;4938585;28;9000;-62
2023/04/17 10:40:49;;;;;;;;;;;;;;;26.57;40.74;94409.00;4938079;28;8703;-62
2023/04/17 10:43:16;;;;;;;;;;;;;;;26.56;40.78;94402.75;4938944;28;7053;-61
2023/04/17 10:46:26;;;;;;;;;;;;;;;26.58;41.34;94402.22;4954399;28;7108;-62
2023/04/17 10:49:06;;;;;;;;;;;;;;;26.58;40.73;94402.22;4932763;28;8581;-62
2023/04/17 10:51:40;;;;;;;;;;;;;;;26.60;40.76;94408.00;4954003;28;9028;-62
2023/04/17 10:54:18;;;;;;;;;;;;;;;26.61;40.90;94398.44;4932806;29;7257;-62
2023/04/17 10:56:46;;;;;;;;;;;;;;;26.62;41.13;94397.91;4962695;28;9517;-62
2023/04/17 10:59:17;;;;;;;;;;;;;;;26.63;40.74;94399.41;5025074;28;8828;-62
2023/04/17 11:02:10;;;;;;;;;;;;;;;26.63;40.84;94387.63;5015937;28;8640;-62
2023/04/17 11:04:36;;;;;;;;;;;;;;;26.64;40.93;94391.88;5027562;28;7028;-61
2023/04/17 11:07:22;;;;;;;;;;;;;;;26.66;41.10;94390.13;5034021;28;9287;-62
2023/04/17 11:09:58;;;;;;;;;;;;;;;26.67;40.82;94385.31;5028742;28;8988;-62
2023/04/17 11:12:33;;;;;;;;;;;;;;;26.67;40.96;94383.31;5031833;28;9443;-61
2023/04/17 11:15:28;;;;;;;;;;;;;;;26.68;40.75;94384.81;5026539;28;7256;-62
2023/04/17 11:18:40;;;;;;;;;;;;;;;26.69;40.51;94385.53;4998747;28;7213;-61
2023/04/17 11:21:17;;;;;;;;;;;;;;;26.67;40.40;94372.28;4950088;28;7296;-61
2023/04/17 11:23:51;;;;;;;;;;;;;;;26.67;40.59;94377.03;4949453;28;7264;-62
2023/04/17 11:26:19;;;;;;;;;;;;;;;26.65;40.67;94374.81;4944487;28;8768;-62
2023/04/17 11:28:46;;;;;;;;;;;;;;;26.66;40.29;94381.09;4972157;28;7282;-62
2023/04/17 11:31:33;;;;;;;;;;;;;;;26.67;40.49;94377.78;4952412;28;7503;-62
2023/04/17 11:34:00;;;;;;;;;;;;;;;26.67;40.23;94372.28;4963818;28;9016;-62
2023/04/17 11:36:31;;;;;;;;;;;;;;;26.69;41.09;94374.50;4972165;28;7519;-62
2023/04/17 11:39:20;;;;;;;;;;;;;;;26.70;40.75;94373.25;4962113;28;7243;-61
2023/04/17 11:41:56;;;;;;;;;;;;;;;26.69;40.43;94372.50;4956084;28;8811;-62
2023/04/17 11:44:31;;;;;;;;;;;;;;;26.70;40.51;94370.50;4948502;28;7188;-61
2023/04/17 11:47:10;;;;;;;;;;;;;;;26.69;40.61;94363.47;4956602;28;9024;-61
2023/04/17 11:49:46;;;;;;;;;;;;;;;26.69;41.12;94363.47;4971085;28;7840;-62
2023/04/17 11:52:12;;;;;;;;;;;;;;;26.71;40.23;94367.22;4947058;28;6986;-62
2023/04/17 11:54:57;;;;;;;;;;;;;;;26.73;40.31;94363.97;4939845;28;7309;-62
2023/04/17 11:57:26;;;;;;;;;;;;;;;26.72;41.16;94362.44;4956623;28;7264;-61
2023/04/17 11:59:54;;;;;;;;;;;;;;;26.72;40.79;94370.72;5021712;28;9140;-61
2023/04/17 12:02:32;;;;;;;;;;;;;;;26.72;40.86;94365.22;5032455;28;8772;-61
2023/04/17 12:05:12;;;;;;;;;;;;;;;26.74;41.13;94366.22;5012778;28;7290;-62
2023/04/17 12:07:40;;;;;;;;;;;;;;;26.76;40.37;94371.22;5017630;28;9178;-62
2023/04/17 12:10:07;;;;;;;;;;;;;;;26.77;40.82;94364.44;5026957;28;9398;-62
2023/04/17 12:12:36;;;;;;;;;;;;;;;26.75;40.40;94367.69;5028858;28;8897;-62
2023/04/17 12:15:02;;;;;;;;;;;;;;;26.75;40.61;94367.69;5030748;28;7261;-63
2023/04/17 12:17:31;;;;;;;;;;;;;;;26.77;40.70;94369.97;5029246;28;9182;-61
2023/04/17 12:20:01;;;;;;;;;;;;;;;26.78;40.72;94369.44;5027643;28;9246;-60
2023/04/17 12:22:29;;;;;;;;;;;;;;;26.80;40.41;94357.84;5028653;28;8981;-61
2023/04/17 12:24:55;;;;;;;;;;;;;;;26.82;40.44;94360.84;5026559;28;7176;-61
2023/04/17 12:27:24;;;;;;;;;;;;;;;26.81;39.95;94351.84;5030081;28;9017;-61
2023/04/17 12:29:50;;;;;;;;;;;;;;;26.80;40.89;94347.56;5026587;28;9058;-62
2023/04/17 12:32:16;;;;;;;;;;;;;;;26.85;40.39;94351.53;5013499;28;9023;-61
2023/04/17 12:34:42;;;;;;;;;;;;;;;26.84;40.49;94352.78;5028235;28;7941;-61
2023/04/17 12:37:10;;;;;;;;;;;;;;;26.86;40.25;94350.28;5014228;28;8259;-62
2023/04/17 12:39:36;;;;;;;;;;;;;;;26.86;40.36;94347.53;5017134;28;7289;-61
2023/04/17 12:42:02;;;;;;;;;;;;;;;26.87;40.45;94351.75;5012972;28;6844;-62
2023/04/17 12:44:28;;;;;;;;;;;;;;;26.87;40.93;94346.25;5028812;28;7184;-62
2023/04/17 12:46:56;;;;;;;;;;;;;;;26.87;40.56;94346.25;5037304;28;9239;-61
2023/04/17 12:49:24;;;;;;;;;;;;;;;26.89;40.86;94338.19;5001919;28;7285;-62
2023/04/17 12:51:50;;;;;;;;;;;;;;;26.90;40.38;94342.44;5011214;28;7190;-62
2023/04/17 12:54:22;;;;;;;;;;;;;;;26.89;40.75;94335.44;5016921;28;7471;-61
2023/04/17 12:56:50;;;;;;;;;;;;;;;26.90;40.51;94340.41;5037618;28;8607;-61
2023/04/17 12:59:18;;;;;;;;;;;;;;;26.94;40.90;94329.09;5014727;28;8802;-61
2023/04/17 13:01:48;;;;;;;;;;;;;;;26.92;40.66;94329.59;5033733;28;8735;-62
2023/04/17 13:04:16;;;;;;;;;;;;;;;26.92;41.07;94322.59;5026707;28;9049;-62
2023/04/17 13:07:12;;;;;;;;;;;;;;;26.95;40.75;94325.06;5032175;28;6994;-61
2023/04/17 13:09:39;;;;;;;;;;;;;;;26.99;40.64;94324.78;5029182;28;7214;-62
2023/04/17 13:12:05;;;;;;;;;;;;;;;26.99;41.04;94328.25;5018659;28;7165;-61
2023/04/17 13:14:34;;;;;;;;;;;;;;;27.00;40.37;94323.50;5042429;28;8713;-61
2023/04/17 13:17:01;;;;;;;;;;;;;;;26.99;41.08;94319.97;5033934;28;7031;-61
2023/04/17 13:19:38;;;;;;;;;;;;;;;27.00;40.75;94321.50;5017051;28;7229;-61
2023/04/17 13:22:11;;;;;;;;;;;;;;;26.98;40.54;94323.28;5030278;28;7621;-61
2023/04/17 13:24:48;;;;;;;;;;;;;;;27.03;40.67;94325.22;5031677;28;7249;-61
2023/04/17 13:27:20;;;;;;;;;;;;;;;27.00;40.60;94313.22;5032530;28;7708;-62
2023/04/17 13:30:16;;;;;;;;;;;;;;;27.03;40.33;94314.94;5014981;28;7112;-61
2023/04/17 13:32:49;;;;;;;;;;;;;;;27.06;40.13;94313.88;4985958;28;7222;-62
2023/04/17 13:35:15;;;;;;;;;;;;;;;27.05;40.50;94306.88;4978283;28;8326;-61
2023/04/17 13:37:45;;;;;;;;;;;;;;;27.02;40.63;94307.91;4974152;28;7217;-61
2023/04/17 13:40:49;;;;;;;;;;;;;;;27.05;41.08;94306.88;4961779;28;9420;-61